Time;durP1;ratioP1;P1;durP2;ratioP2;P2;SDS_P1;SDS_P2;PMS_P1;PMS_P2;Temp;Humidity;BMP_temperature;BMP_pressure;BME280_temperature;BME280_humidity;BME280_pressure;Samples;Min_cycle;Max_cycle;Signal;HPM_P1;HPM_P2
2022/04/30 00:01:54;;;;;;;13.90;7.47;;;;;;;9.98;76.77;101339.81;125124;1102;102382;-74
2022/04/30 00:04:27;;;;;;;17.90;7.87;;;;;;;9.91;77.10;101329.86;125160;1102;102224;-75
2022/04/30 00:07:04;;;;;;;16.40;7.57;;;;;;;9.85;77.32;101329.54;125661;1102;103219;-76
2022/04/30 00:09:37;;;;;;;14.40;7.67;;;;;;;9.82;76.46;101325.03;125556;1099;118948;-75
2022/04/30 00:12:11;;;;;;;18.10;7.53;;;;;;;9.81;77.51;101327.56;125868;1102;102499;-75
2022/04/30 00:14:47;;;;;;;14.60;7.73;;;;;;;9.78;76.94;101319.55;126104;1099;102282;-75
2022/04/30 00:20:08;;;;;;;13.97;7.33;;;;;;;9.74;77.37;101325.44;126209;1099;104140;-75
2022/04/30 00:22:43;;;;;;;13.58;6.65;;;;;;;9.73;77.20;101326.28;125568;1099;104239;-75
2022/04/30 00:25:20;;;;;;;13.00;6.60;;;;;;;9.69;77.26;101326.11;125766;1098;104150;-75
2022/04/30 00:27:52;;;;;;;13.73;6.77;;;;;;;9.64;77.59;101330.19;126220;1099;102282;-75
2022/04/30 00:30:27;;;;;;;12.27;6.83;;;;;;;9.62;77.07;101331.84;126837;1098;109416;-74
2022/04/30 00:32:58;;;;;;;;;;;;;;;9.56;77.32;101326.28;126131;1098;102125;-75
2022/04/30 00:35:31;;;;;;;13.37;7.00;;;;;;;9.50;77.40;101323.33;126279;1099;104094;-75
2022/04/30 00:38:04;;;;;;;15.93;7.53;;;;;;;9.44;78.30;101323.00;125481;1099;104201;-76
2022/04/30 00:40:36;;;;;;;16.83;8.40;;;;;;;9.38;77.59;101320.98;125656;1099;104318;-76
2022/04/30 00:43:07;;;;;;;17.53;8.33;;;;;;;9.33;77.82;101327.66;125733;1099;104156;-75
2022/04/30 00:45:45;;;;;;;15.80;8.00;;;;;;;9.26;78.08;101323.82;126867;1098;101803;-76
2022/04/30 00:48:16;;;;;;;17.63;8.43;;;;;;;9.21;78.37;101320.06;126625;1098;101886;-76
2022/04/30 00:50:50;;;;;;;17.23;8.77;;;;;;;9.18;78.74;101326.02;125997;1099;102159;-75
2022/04/30 00:53:24;;;;;;;15.53;7.57;;;;;;;9.14;78.11;101325.77;125095;1099;102737;-75
2022/04/30 00:55:58;;;;;;;16.90;8.73;;;;;;;9.10;78.80;101319.48;126191;1099;103258;-75
2022/04/30 00:58:30;;;;;;;;;;;;;;;9.08;78.06;101326.33;125094;1099;104346;-76
2022/04/30 01:01:05;;;;;;;19.27;7.20;;;;;;;8.99;78.51;101329.36;126311;1098;117782;-76
2022/04/30 01:04:12;;;;;;;14.33;7.47;;;;;;;8.92;78.46;101327.20;125623;1099;104625;-76
2022/04/30 01:06:53;;;;;;;16.27;6.60;;;;;;;8.90;78.93;101326.23;125597;1099;104354;-76
2022/04/30 01:09:28;;;;;;;21.50;6.57;;;;;;;8.87;78.64;101327.78;125784;1099;102151;-76
2022/04/30 01:12:09;;;;;;;21.83;6.80;;;;;;;8.81;79.14;101318.75;126623;1098;104168;-76
2022/04/30 01:14:54;;;;;;;15.37;6.50;;;;;;;8.71;79.08;101299.83;125675;1099;102711;-75
2022/04/30 01:17:27;;;;;;;24.60;6.77;;;;;;;8.78;79.12;101315.08;127055;1098;104183;-76
2022/04/30 01:19:59;;;;;;;18.13;6.40;;;;;;;8.78;79.14;101315.08;126252;1098;104687;-75
2022/04/30 01:22:34;;;;;;;17.43;6.60;;;;;;;8.80;78.91;101310.81;126549;1098;101822;-76
2022/04/30 01:25:09;;;;;;;16.80;6.63;;;;;;;8.83;78.76;101310.98;125139;1102;104268;-75
2022/04/30 01:27:43;;;;;;;21.40;6.77;;;;;;;8.88;79.51;101309.55;126747;1098;102355;-75
2022/04/30 01:30:17;;;;;;;14.57;6.50;;;;;;;8.89;79.03;101311.33;126524;1098;102105;-76
2022/04/30 01:38:29;;;;;;;15.50;7.00;;;;;;;8.94;79.17;101303.73;125932;1099;104242;-76
2022/04/30 01:41:04;;;;;;;14.30;6.43;;;;;;;9.04;79.04;101305.13;125177;1099;102284;-75
2022/04/30 01:43:37;;;;;;;13.00;6.10;;;;;;;9.10;79.12;101300.23;125843;1099;104188;-76
2022/04/30 01:46:09;;;;;;;12.93;5.80;;;;;;;9.12;79.30;101298.62;126825;1098;101686;-76
2022/04/30 01:48:40;;;;;;;11.87;5.23;;;;;;;9.05;79.21;101302.59;125667;1099;104265;-75
2022/04/30 01:51:14;;;;;;;12.33;5.70;;;;;;;8.93;79.14;101300.23;125159;1099;102538;-75
2022/04/30 01:53:48;;;;;;;19.40;6.00;;;;;;;8.81;79.31;101305.67;125147;1099;104311;-75
2022/04/30 01:56:20;;;;;;;12.43;5.60;;;;;;;8.72;78.98;101297.30;125815;1099;104179;-75
2022/04/30 01:59:03;;;;;;;18.83;5.93;;;;;;;8.68;78.89;101295.35;125868;1099;102073;-76
2022/04/30 02:01:35;;;;;;;18.67;6.20;;;;;;;8.62;79.33;101300.23;125426;1102;104224;-76
2022/04/30 02:04:08;;;;;;;18.77;6.27;;;;;;;8.58;79.11;101298.25;124952;1101;104409;-75
2022/04/30 02:06:40;;;;;;;20.40;5.80;;;;;;;8.56;79.72;101295.55;124925;1102;104220;-75
2022/04/30 02:09:12;;;;;;;10.13;5.50;;;;;;;8.54;79.73;101299.80;125276;1102;102178;-75
2022/04/30 02:11:44;;;;;;;12.40;5.17;;;;;;;8.54;79.06;101291.03;125560;1102;104150;-75
2022/04/30 02:14:19;;;;;;;12.23;5.83;;;;;;;8.53;79.33;101290.14;125208;1102;104273;-75
2022/04/30 02:16:50;;;;;;;11.23;5.60;;;;;;;8.54;79.85;101291.95;125113;1102;102301;-76
2022/04/30 02:19:26;;;;;;;10.50;5.80;;;;;;;8.55;79.80;101292.84;125861;1102;102997;-75
2022/04/30 02:22:02;;;;;;;17.23;6.10;;;;;;;8.59;79.87;101293.11;125524;1102;102342;-76
2022/04/30 02:24:35;;;;;;;10.50;6.03;;;;;;;8.64;79.89;101288.13;125804;1102;104172;-76
2022/04/30 02:27:09;;;;;;;12.33;6.03;;;;;;;8.65;79.92;101289.95;125206;1102;103024;-75
2022/04/30 02:29:42;;;;;;;17.70;5.63;;;;;;;8.62;79.63;101295.89;124929;1102;104246;-75
2022/04/30 02:32:13;;;;;;;11.63;5.13;;;;;;;8.53;79.73;101295.38;125022;1102;103297;-76
2022/04/30 02:34:45;;;;;;;18.23;5.10;;;;;;;8.44;79.35;101300.97;125745;1099;102501;-75
2022/04/30 02:37:16;;;;;;;14.70;4.53;;;;;;;8.36;80.54;101291.77;125541;1098;104153;-76
2022/04/30 02:39:48;;;;;;;13.47;4.60;;;;;;;8.29;79.99;101302.70;126621;1098;104306;-75
2022/04/30 02:42:19;;;;;;;9.97;4.83;;;;;;;8.19;80.11;101298.63;126517;1098;102772;-75
2022/04/30 02:44:52;;;;;;;18.10;5.07;;;;;;;8.16;80.33;101297.56;125703;1098;102124;-75
2022/04/30 02:47:23;;;;;;;12.70;4.60;;;;;;;8.09;80.04;101296.31;126529;1098;102462;-75
2022/04/30 02:49:54;;;;;;;9.07;4.67;;;;;;;8.03;80.34;101303.80;126932;1098;101922;-75
2022/04/30 02:52:32;;;;;;;8.37;4.60;;;;;;;7.98;80.54;101299.98;125770;1098;104230;-75
2022/04/30 02:55:04;;;;;;;17.00;4.30;;;;;;;7.90;80.13;101304.80;125633;1099;104191;-75
2022/04/30 02:59:53;;;;;;;22.20;4.17;;;;;;;7.86;80.03;101302.80;125731;1098;104216;-76
2022/04/30 03:00:39;;;;;;;12.13;4.13;;;;;;;7.84;79.86;101307.93;125939;1099;102289;-75
2022/04/30 03:03:31;;;;;;;17.63;4.43;;;;;;;7.81;80.07;101307.75;124993;1102;104194;-75
2022/04/30 03:06:05;;;;;;;22.35;4.42;;;;;;;7.80;80.70;101303.32;124925;1099;104261;-75
2022/04/30 03:08:40;;;;;;;18.40;4.60;;;;;;;7.75;80.31;101294.31;125715;1098;104224;-75
2022/04/30 03:11:12;;;;;;;9.37;4.30;;;;;;;7.76;79.97;101300.43;125721;1099;102117;-75
2022/04/30 03:13:44;;;;;;;22.67;4.83;;;;;;;7.77;80.32;101305.75;125866;1102;108250;-75
2022/04/30 03:21:55;;;;;;;17.87;4.07;;;;;;;7.92;80.54;101309.28;124977;1102;103094;-76
2022/04/30 03:24:29;;;;;;;25.20;4.60;;;;;;;7.87;80.56;101313.34;125538;1099;104179;-75
2022/04/30 03:27:00;;;;;;;31.10;4.73;;;;;;;7.84;80.72;101312.27;125444;1099;103206;-74
2022/04/30 03:29:32;;;;;;;19.53;4.90;;;;;;;7.79;80.49;101311.06;125779;1099;104166;-75
2022/04/30 03:32:10;;;;;;;27.80;4.37;;;;;;;7.78;80.80;101311.90;126849;1098;102270;-75
2022/04/30 03:34:42;;;;;;;9.73;4.40;;;;;;;7.80;80.58;101312.88;125698;1099;102803;-75
2022/04/30 03:37:35;;;;;;;16.67;4.57;;;;;;;7.85;80.34;101311.44;125728;1099;102313;-75
2022/04/30 03:40:13;;;;;;;15.47;4.50;;;;;;;7.90;80.30;101315.25;126272;1099;104159;-75
2022/04/30 03:42:45;;;;;;;13.67;4.30;;;;;;;7.91;80.74;101315.30;125675;1099;104185;-75
2022/04/30 03:45:16;;;;;;;14.43;4.33;;;;;;;7.91;80.68;101311.80;125226;1099;103010;-75
2022/04/30 03:47:47;;;;;;;16.77;4.50;;;;;;;7.85;80.88;101316.66;125890;1099;102327;-75
2022/04/30 03:50:21;;;;;;;9.90;3.90;;;;;;;7.77;80.58;101320.53;125770;1099;104195;-77
2022/04/30 03:52:53;;;;;;;13.22;3.85;;;;;;;7.74;80.62;101318.63;125385;1099;104271;-76
2022/04/30 03:55:27;;;;;;;6.13;3.43;;;;;;;7.68;80.69;101318.26;124960;1099;102798;-75
2022/04/30 03:58:06;;;;;;;14.50;3.92;;;;;;;7.67;81.17;101326.92;125622;1102;102510;-76
2022/04/30 04:00:39;;;;;;;9.67;3.80;;;;;;;7.69;80.79;101320.07;125232;1102;104746;-76
2022/04/30 04:03:21;;;;;;;14.30;3.83;;;;;;;7.72;80.46;101325.48;125738;1099;104444;-76
2022/04/30 04:05:57;;;;;;;12.10;4.23;;;;;;;7.78;81.15;101322.35;125601;1099;104163;-76
2022/04/30 04:08:29;;;;;;;13.40;3.83;;;;;;;7.83;80.87;101324.41;125668;1099;104275;-76
2022/04/30 04:11:33;;;;;;;8.53;4.00;;;;;;;7.89;80.90;101318.66;125410;1099;104319;-76
2022/04/30 04:17:41;;;;;;;8.95;4.35;;;;;;;8.02;81.25;101317.66;126039;1099;102433;-76
2022/04/30 04:20:24;;;;;;;14.77;4.27;;;;;;;8.07;81.00;101324.05;125539;1099;102573;-76
2022/04/30 04:23:21;;;;;;;14.83;4.33;;;;;;;8.08;81.00;101328.48;125283;1099;102246;-76
2022/04/30 04:26:00;;;;;;;11.10;4.70;;;;;;;8.06;81.08;101327.50;125318;1099;104301;-75
2022/04/30 04:28:38;;;;;;;13.00;4.27;;;;;;;8.09;80.88;101338.14;127113;1098;102294;-76
2022/04/30 04:31:25;;;;;;;7.30;3.60;;;;;;;8.10;81.16;101324.23;125862;1099;102314;-76
2022/04/30 04:33:59;;;;;;;7.40;3.60;;;;;;;8.18;80.72;101337.76;126100;1102;102162;-76
2022/04/30 04:36:52;;;;;;;6.57;4.17;;;;;;;8.28;80.89;101332.27;125858;1099;102178;-76
2022/04/30 04:39:33;;;;;;;6.13;3.70;;;;;;;8.35;80.84;101329.20;126551;1099;104156;-75
2022/04/30 04:42:45;;;;;;;6.23;3.90;;;;;;;8.45;81.42;101322.81;126475;1099;102612;-76
2022/04/30 04:45:32;;;;;;;6.20;3.57;;;;;;;8.49;81.54;101331.73;125311;1099;102337;-76
2022/04/30 04:48:27;;;;;;;8.50;3.80;;;;;;;8.50;80.55;101339.67;125191;1099;102801;-76
2022/04/30 04:51:27;;;;;;;8.07;4.60;;;;;;;8.58;81.25;101327.03;125263;1102;104060;-76
2022/04/30 04:54:01;;;;;;;14.73;4.40;;;;;;;8.62;81.42;101332.52;125355;1102;102338;-76
2022/04/30 04:56:44;;;;;;;9.97;4.40;;;;;;;8.68;81.47;101331.98;125630;1102;104172;-76
2022/04/30 05:02:27;;;;;;;11.40;4.13;;;;;;;8.75;80.65;101334.11;125462;1102;104072;-75
2022/04/30 05:05:01;;;;;;;7.77;3.67;;;;;;;8.76;80.78;101327.19;125312;1102;102440;-76
2022/04/30 05:07:50;;;;;;;6.05;4.22;;;;;;;8.77;81.35;101328.96;125117;1102;104290;-75
2022/04/30 05:10:30;;;;;;;5.90;3.77;;;;;;;8.81;80.93;101323.98;125471;1102;102448;-76
2022/04/30 05:13:08;;;;;;;6.73;4.23;;;;;;;8.82;80.71;101327.53;125258;1102;103347;-75
2022/04/30 05:15:42;;;;;;;7.50;4.00;;;;;;;8.83;81.59;101329.30;124948;1102;102004;-75
2022/04/30 05:18:22;;;;;;;7.10;4.47;;;;;;;8.79;81.02;101336.09;125364;1102;102273;-76
2022/04/30 05:20:54;;;;;;;8.97;4.30;;;;;;;8.79;81.19;101327.35;125486;1102;102193;-75
2022/04/30 05:23:30;;;;;;;8.20;4.50;;;;;;;8.84;81.02;101322.38;125051;1102;104256;-76
2022/04/30 05:26:03;;;;;;;7.13;4.43;;;;;;;8.89;81.65;101321.80;125175;1102;103558;-76
2022/04/30 05:28:35;;;;;;;8.00;4.28;;;;;;;8.96;81.74;101323.95;124823;1102;102277;-76
2022/04/30 05:31:09;;;;;;;6.90;4.07;;;;;;;9.00;81.52;101331.14;124931;1102;104169;-76
2022/04/30 05:33:41;;;;;;;10.23;4.57;;;;;;;9.07;81.35;101323.62;125039;1102;104156;-76
2022/04/30 05:36:13;;;;;;;6.55;3.90;;;;;;;9.18;81.68;101319.90;125016;1102;104409;-76
2022/04/30 05:38:45;;;;;;;10.03;4.50;;;;;;;9.28;81.95;101330.03;125536;1103;102107;-75
2022/04/30 05:41:16;;;;;;;7.20;4.30;;;;;;;9.39;81.22;101332.34;124917;1102;102778;-75
2022/04/30 05:43:47;;;;;;;8.80;4.40;;;;;;;9.48;81.23;101341.59;124985;1099;104249;-75
2022/04/30 05:46:20;;;;;;;9.37;4.20;;;;;;;9.56;81.17;101333.25;125408;1099;104239;-75
2022/04/30 05:48:52;;;;;;;12.70;4.90;;;;;;;9.66;81.24;101330.27;125619;1099;102324;-75
2022/04/30 05:51:26;;;;;;;11.10;4.20;;;;;;;9.80;81.80;101333.62;125537;1099;104277;-76
2022/04/30 05:53:58;;;;;;;11.33;4.27;;;;;;;9.92;81.15;101335.98;124980;1102;104717;-75
2022/04/30 05:56:31;;;;;;;8.57;4.10;;;;;;;10.05;81.05;101335.78;125143;1099;104409;-76
2022/04/30 05:59:06;;;;;;;7.10;4.30;;;;;;;10.20;81.19;101331.31;125467;1099;102025;-76
2022/04/30 06:01:39;;;;;;;10.43;4.37;;;;;;;10.33;81.00;101335.52;125375;1102;103184;-76
2022/04/30 06:04:13;;;;;;;10.13;3.77;;;;;;;10.46;81.15;101336.13;125757;1099;103297;-76
2022/04/30 06:06:46;;;;;;;10.20;4.25;;;;;;;10.61;81.24;101334.22;125901;1099;102161;-76
2022/04/30 06:09:23;;;;;;;8.53;4.10;;;;;;;10.76;81.23;101328.83;125647;1099;104248;-76
2022/04/30 06:12:06;;;;;;;8.23;4.00;;;;;;;10.96;81.36;101321.91;125682;1098;104259;-76
2022/04/30 06:14:44;;;;;;;8.57;3.73;;;;;;;11.13;81.14;101326.22;125696;1099;104159;-76
2022/04/30 06:17:15;;;;;;;7.30;4.23;;;;;;;11.27;81.10;101323.34;125629;1100;105063;-76
2022/04/30 06:19:50;;;;;;;8.20;3.90;;;;;;;11.40;80.97;101324.80;125053;1099;102473;-76
2022/04/30 06:22:26;;;;;;;7.23;4.03;;;;;;;11.51;81.04;101329.72;125955;1099;104201;-75
2022/04/30 06:24:57;;;;;;;11.07;4.20;;;;;;;11.64;80.85;101330.23;126988;1099;102936;-76
2022/04/30 06:27:36;;;;;;;9.90;3.67;;;;;;;11.77;80.76;101334.34;125906;1099;102818;-75
2022/04/30 06:30:13;;;;;;;8.53;4.07;;;;;;;11.91;80.20;101332.31;126704;1098;103159;-76
2022/04/30 06:32:46;;;;;;;12.80;4.33;;;;;;;12.03;80.25;101327.62;126136;1099;102787;-77
2022/04/30 06:35:21;;;;;;;9.20;4.10;;;;;;;12.17;79.93;101329.09;127165;1098;101774;-76
2022/04/30 06:37:53;;;;;;;7.70;3.90;;;;;;;12.31;80.01;101334.02;126033;1099;110007;-76
2022/04/30 06:40:31;;;;;;;12.43;4.33;;;;;;;12.45;79.36;101327.63;125792;1099;102867;-76
2022/04/30 06:43:05;;;;;;;10.20;3.90;;;;;;;12.65;79.16;101319.62;125095;1099;104038;-77
2022/04/30 06:45:43;;;;;;;10.47;3.93;;;;;;;12.80;79.60;101321.98;125291;1102;102618;-76
2022/04/30 06:48:29;;;;;;;9.77;3.73;;;;;;;12.97;78.33;101320.02;125197;1099;104150;-77
2022/04/30 06:51:02;;;;;;;6.87;3.87;;;;;;;13.08;71.20;101311.67;125136;1099;102738;-77
2022/04/30 06:57:16;;;;;;;6.37;3.50;;;;;;;13.52;73.34;101316.84;125631;1099;102906;-76
2022/04/30 06:59:51;;;;;;;6.93;2.90;;;;;;;13.73;73.36;101319.38;125893;1099;102674;-76
2022/04/30 07:05:47;;;;;;;8.13;3.50;;;;;;;13.96;69.48;101319.28;126915;1098;102139;-76
2022/04/30 07:14:15;;;;;;;9.10;3.30;;;;;;;14.38;67.23;101309.30;126121;1099;102531;-78
2022/04/30 07:16:54;;;;;;;9.13;2.77;;;;;;;14.64;65.59;101317.19;125806;1099;104165;-77
2022/04/30 07:19:27;;;;;;;6.47;3.27;;;;;;;14.81;68.32;101319.48;125711;1099;104232;-77
2022/04/30 07:22:04;;;;;;;8.17;3.30;;;;;;;14.86;67.97;101310.83;125715;1099;101808;-77
2022/04/30 07:24:38;;;;;;;5.45;3.10;;;;;;;15.02;67.97;101308.66;126806;1099;104076;-77
2022/04/30 07:27:09;;;;;;;;;;;;;;;15.23;65.93;101305.78;125719;1102;102331;-77
2022/04/30 07:29:41;;;;;;;7.03;3.00;;;;;;;15.32;65.06;101303.41;126098;1099;103012;-76
2022/04/30 07:32:14;;;;;;;9.60;3.50;;;;;;;15.43;63.69;101309.01;125774;1099;101817;-77
2022/04/30 07:34:58;;;;;;;5.15;2.50;;;;;;;15.58;62.59;101305.89;125236;1099;104303;-77
2022/04/30 07:47:03;;;;;;;5.93;2.50;;;;;;;16.15;57.52;101305.69;125864;1102;101873;-77
2022/04/30 07:49:44;;;;;;;4.67;2.50;;;;;;;16.25;50.73;101304.20;125992;1102;102052;-74
2022/04/30 07:52:34;;;;;;;4.07;2.70;;;;;;;16.47;58.81;101308.27;125685;1102;101988;-75
2022/04/30 07:55:28;;;;;;;4.23;2.57;;;;;;;16.48;55.82;101304.73;125189;1102;104398;-75
2022/04/30 07:58:25;;;;;;;4.57;2.47;;;;;;;16.66;58.91;101301.65;125347;1102;102432;-75
2022/04/30 08:01:05;;;;;;;5.80;2.50;;;;;;;16.80;57.32;101301.97;125518;1102;102268;-75
2022/04/30 08:03:41;;;;;;;7.27;2.60;;;;;;;16.67;55.32;101302.53;125175;1102;102308;-77
2022/04/30 08:06:38;;;;;;;4.53;2.40;;;;;;;16.52;52.65;101303.97;125493;1102;101912;-76
2022/04/30 08:09:25;;;;;;;6.60;2.30;;;;;;;16.62;51.91;101307.72;125293;1101;104201;-76
2022/04/30 08:12:05;;;;;;;3.63;2.30;;;;;;;16.62;52.50;101297.13;125250;1102;104205;-76
2022/04/30 08:14:37;;;;;;;3.43;2.60;;;;;;;16.81;54.32;101289.60;125911;1102;102230;-74
2022/04/30 08:17:10;;;;;;;4.63;2.50;;;;;;;16.84;53.94;101292.33;125914;1102;102154;-74
2022/04/30 08:19:41;;;;;;;5.57;2.50;;;;;;;16.88;52.89;101286.28;125991;1099;104232;-74
2022/04/30 08:22:18;;;;;;;12.10;2.53;;;;;;;16.95;54.05;101293.48;126476;1099;104198;-74
2022/04/30 08:24:51;;;;;;;5.23;2.63;;;;;;;17.00;51.27;101293.59;125535;1099;103498;-74
2022/04/30 08:27:44;;;;;;;6.53;2.55;;;;;;;16.93;49.28;101289.03;125708;1099;102380;-75
2022/04/30 08:30:18;;;;;;;5.47;2.57;;;;;;;17.02;52.40;101286.58;125753;1099;104319;-74
2022/04/30 08:33:13;;;;;;;4.13;2.47;;;;;;;17.13;52.26;101287.70;126463;1098;101918;-74
2022/04/30 08:35:56;;;;;;;6.23;2.40;;;;;;;17.09;49.04;101288.48;127081;1098;101724;-76
2022/04/30 08:38:32;;;;;;;7.50;3.13;;;;;;;17.04;50.47;101283.08;126584;1099;104278;-75
2022/04/30 08:41:04;;;;;;;5.57;2.37;;;;;;;17.17;52.23;101275.39;126583;1099;103203;-75
2022/04/30 08:43:38;;;;;;;5.57;2.50;;;;;;;17.28;50.44;101273.88;126593;1098;102592;-75
2022/04/30 08:46:11;;;;;;;7.17;2.83;;;;;;;17.33;51.23;101277.52;126023;1099;101885;-74
2022/04/30 08:48:44;;;;;;;4.73;2.60;;;;;;;17.43;51.37;101278.58;126599;1098;104248;-75
2022/04/30 08:51:18;;;;;;;7.55;2.65;;;;;;;17.48;52.29;101271.59;125686;1099;104165;-74
2022/04/30 08:53:50;;;;;;;5.40;2.75;;;;;;;17.58;52.32;101267.39;126638;1098;102008;-74
2022/04/30 08:56:22;;;;;;;6.37;2.70;;;;;;;17.64;51.48;101262.20;125281;1099;102322;-74
2022/04/30 08:59:03;;;;;;;4.37;2.57;;;;;;;17.46;49.17;101268.03;126294;1099;102140;-75
2022/04/30 09:01:47;;;;;;;5.00;2.40;;;;;;;17.44;48.17;101267.12;125705;1099;104159;-75
2022/04/30 09:04:43;;;;;;;4.57;2.60;;;;;;;17.48;50.11;101260.98;125769;1099;104198;-77
2022/04/30 09:07:21;;;;;;;4.33;2.20;;;;;;;17.68;50.50;101258.72;125520;1100;101917;-75
2022/04/30 09:09:58;;;;;;;4.83;2.40;;;;;;;17.84;50.82;101256.34;125237;1102;104641;-75
2022/04/30 09:12:58;;;;;;;4.90;2.40;;;;;;;17.82;49.25;101252.78;126329;1098;104073;-74
2022/04/30 09:15:31;;;;;;;4.97;2.20;;;;;;;17.76;49.18;101251.81;124972;1102;104243;-74
2022/04/30 09:18:08;;;;;;;5.50;2.10;;;;;;;17.93;49.15;101244.16;124945;1102;104322;-75
2022/04/30 09:20:47;;;;;;;8.43;2.37;;;;;;;18.11;49.65;101240.92;125008;1102;104389;-75
2022/04/30 09:26:52;;;;;;;3.07;2.03;;;;;;;18.08;48.07;101237.34;125628;1103;102142;-75
2022/04/30 09:32:24;;;;;;;2.57;2.10;;;;;;;18.04;44.81;101228.41;126183;1102;102223;-75
2022/04/30 09:37:48;;;;;;;4.23;2.30;;;;;;;18.19;46.97;101221.58;125527;1102;102433;-74
2022/04/30 09:40:53;;;;;;;3.80;2.00;;;;;;;17.99;41.74;101224.78;125026;1102;104359;-74
2022/04/30 09:43:30;;;;;;;3.17;2.00;;;;;;;18.06;45.05;101220.46;124869;1102;104325;-74
2022/04/30 09:46:05;;;;;;;2.87;2.20;;;;;;;18.22;46.02;101217.20;125310;1102;104326;-74
2022/04/30 09:54:20;;;;;;;5.47;1.97;;;;;;;18.58;44.53;101215.08;125058;1099;102979;-74
2022/04/30 09:56:58;;;;;;;5.13;2.30;;;;;;;18.63;45.74;101216.91;125880;1099;102264;-74
2022/04/30 09:59:36;;;;;;;5.93;2.17;;;;;;;18.78;45.86;101210.92;125752;1102;103198;-74
2022/04/30 10:02:15;;;;;;;4.37;2.00;;;;;;;18.81;43.58;101200.33;125624;1099;110965;-75
2022/04/30 10:04:50;;;;;;;5.43;2.17;;;;;;;18.75;42.83;101199.36;125476;1099;102754;-76
2022/04/30 10:11:15;;;;;;;4.37;2.30;;;;;;;18.64;39.91;101194.78;125377;1102;104348;-76
2022/04/30 10:15:03;;;;;;;2.20;1.97;;;;;;;18.65;42.27;101196.58;126312;1100;101781;-76
2022/04/30 10:17:42;;;;;;;4.77;2.00;;;;;;;18.68;41.59;101193.96;126119;1101;103257;-76
2022/04/30 10:20:16;;;;;;;3.13;2.20;;;;;;;18.82;42.26;101187.91;125565;1105;102409;-77
2022/04/30 10:22:52;;;;;;;2.60;2.07;;;;;;;18.76;40.98;101191.41;125131;1102;102851;-77
2022/04/30 10:25:33;;;;;;;2.40;2.20;;;;;;;18.74;41.54;101182.50;125070;1102;107695;-77
2022/04/30 10:28:18;;;;;;;2.83;1.70;;;;;;;18.96;41.63;101183.69;125028;1102;104118;-77
2022/04/30 10:34:46;;;;;;;2.73;2.20;;;;;;;19.20;41.80;101177.77;125464;1102;103242;-77
2022/04/30 10:37:32;;;;;;;3.37;1.97;;;;;;;19.27;39.11;101178.72;125495;1102;102146;-76
2022/04/30 10:40:07;;;;;;;3.40;2.10;;;;;;;19.15;40.16;101173.27;126073;1101;102321;-77
2022/04/30 10:42:44;;;;;;;4.70;2.33;;;;;;;18.99;40.91;101172.20;126631;1102;101910;-76
2022/04/30 10:45:29;;;;;;;3.10;2.10;;;;;;;18.99;39.34;101170.42;125875;1102;101702;-78
2022/04/30 10:48:06;;;;;;;4.90;2.30;;;;;;;19.16;40.77;101167.08;125415;1102;102407;-77
2022/04/30 10:50:41;;;;;;;3.40;2.10;;;;;;;19.39;40.99;101165.55;125421;1102;104242;-77
2022/04/30 10:53:13;;;;;;;6.43;2.27;;;;;;;19.39;39.11;101165.55;125618;1102;104307;-77
2022/04/30 10:55:44;;;;;;;5.07;2.33;;;;;;;19.15;38.18;101179.50;125085;1102;104187;-77
2022/04/30 10:58:15;;;;;;;5.47;2.27;;;;;;;19.08;39.06;101176.75;125649;1102;102752;-77
2022/04/30 11:00:54;;;;;;;3.27;2.23;;;;;;;18.92;38.84;101175.69;125559;1102;102836;-77
2022/04/30 11:03:33;;;;;;;5.43;2.30;;;;;;;18.80;39.52;101171.94;125513;1102;101976;-77
2022/04/30 11:06:04;;;;;;;2.90;2.20;;;;;;;18.77;39.45;101171.91;125150;1102;102755;-77
2022/04/30 11:08:34;;;;;;;3.80;2.17;;;;;;;18.95;39.03;101173.06;125143;1105;102533;-76
2022/04/30 11:11:08;;;;;;;4.97;2.23;;;;;;;18.98;36.17;101168.66;125656;1102;103620;-76
2022/04/30 11:14:01;;;;;;;3.53;2.07;;;;;;;19.00;36.88;101164.24;125610;1102;102260;-77
2022/04/30 11:16:35;;;;;;;6.80;2.07;;;;;;;19.13;37.98;101159.95;125065;1105;118851;-77
2022/04/30 11:19:26;;;;;;;2.80;2.17;;;;;;;19.13;36.20;101159.06;124933;1105;104333;-77
2022/04/30 11:25:12;;;;;;;3.13;2.13;;;;;;;19.11;36.18;101144.87;125145;1109;104191;-78
2022/04/30 11:28:21;;;;;;;2.93;2.10;;;;;;;19.11;35.19;101134.23;124926;1109;102606;-77
2022/04/30 11:30:59;;;;;;;2.77;2.27;;;;;;;19.09;35.35;101136.87;124943;1108;104258;-76
2022/04/30 11:33:50;;;;;;;3.40;2.10;;;;;;;19.15;35.91;101112.99;125103;1109;102324;-77
2022/04/30 11:39:40;;;;;;;2.20;2.00;;;;;;;19.16;36.00;101104.12;124836;1109;102362;-77
2022/04/30 11:42:16;;;;;;;6.20;2.10;;;;;;;19.24;35.72;101112.17;124990;1109;102102;-77
2022/04/30 11:45:27;;;;;;;3.33;2.10;;;;;;;19.35;37.22;101107.87;125376;1108;102750;-77
2022/04/30 11:47:57;;;;;;;3.67;2.10;;;;;;;19.25;32.56;101108.65;124622;1109;102249;-78
2022/04/30 11:50:37;;;;;;;3.77;2.07;;;;;;;19.26;36.16;101101.55;124761;1109;102100;-77
2022/04/30 11:53:43;;;;;;;3.23;2.30;;;;;;;19.20;35.47;101097.96;124827;1112;103816;-77
2022/04/30 11:56:16;;;;;;;4.70;2.57;;;;;;;19.37;36.24;101084.81;125052;1109;104663;-77
2022/04/30 11:58:49;;;;;;;3.80;2.37;;;;;;;19.54;36.99;101079.64;124801;1108;118856;-77
2022/04/30 12:01:26;;;;;;;3.57;2.30;;;;;;;19.64;35.84;101085.92;124944;1109;104130;-77
2022/04/30 12:03:59;;;;;;;3.67;2.13;;;;;;;19.77;36.28;101080.72;124597;1106;102833;-77
2022/04/30 12:06:30;;;;;;;3.33;2.23;;;;;;;19.88;35.83;101068.36;125464;1105;102944;-78
2022/04/30 12:09:00;;;;;;;3.30;2.00;;;;;;;19.94;35.42;101076.39;124741;1105;101843;-77
2022/04/30 12:11:59;;;;;;;4.93;2.20;;;;;;;20.03;36.51;101076.45;124749;1106;104336;-77
2022/04/30 12:14:33;;;;;;;3.47;2.33;;;;;;;19.90;34.53;101074.61;124991;1109;104230;-76
2022/04/30 12:24:40;;;;;;;5.20;2.40;;;;;;;19.79;34.65;101071.88;124819;1109;103184;-77
2022/04/30 12:27:04;;;;;;;2.37;2.10;;;;;;;19.45;35.04;101073.36;125094;1108;102533;-76
2022/04/30 12:29:37;;;;;;;5.53;2.53;;;;;;;19.63;35.35;101073.48;125107;1109;108355;-77
2022/04/30 12:32:25;;;;;;;3.10;2.23;;;;;;;19.80;34.85;101057.66;125556;1103;102373;-76
2022/04/30 12:35:13;;;;;;;2.87;2.30;;;;;;;19.88;34.36;101058.62;125478;1103;102100;-76
2022/04/30 12:37:43;;;;;;;2.73;2.30;;;;;;;20.10;35.21;101064.95;125643;1099;102987;-77
2022/04/30 12:40:13;;;;;;;3.53;2.20;;;;;;;20.28;35.76;101057.94;125531;1099;104278;-77
2022/04/30 12:42:45;;;;;;;2.87;2.30;;;;;;;20.46;35.71;101057.14;125226;1102;103246;-77
2022/04/30 12:45:21;;;;;;;3.00;2.20;;;;;;;20.57;35.60;101051.81;126326;1099;101560;-77
2022/04/30 12:47:52;;;;;;;3.50;2.17;;;;;;;20.60;34.25;101050.07;125231;1099;104082;-78
2022/04/30 12:50:27;;;;;;;4.13;2.30;;;;;;;20.49;34.50;101043.82;125834;1099;102082;-77
2022/04/30 12:52:57;;;;;;;3.75;2.30;;;;;;;20.39;33.42;101048.20;125376;1102;103099;-76
2022/04/30 12:55:31;;;;;;;3.13;2.20;;;;;;;20.23;33.67;101057.03;125840;1099;102163;-76
2022/04/30 12:58:17;;;;;;;4.20;2.50;;;;;;;20.04;33.54;101056.93;125285;1099;101953;-76
2022/04/30 13:00:48;;;;;;;5.85;2.83;;;;;;;19.95;33.80;101056.88;125854;1099;101800;-76
2022/04/30 13:03:25;;;;;;;3.57;2.50;;;;;;;19.88;33.57;101050.63;125510;1102;102114;-77
2022/04/30 13:05:59;;;;;;;4.50;2.50;;;;;;;19.75;33.63;101046.94;125599;1099;104162;-77
2022/04/30 13:14:34;;;;;;;2.93;1.77;;;;;;;19.37;33.25;101052.88;126033;1099;102041;-77
2022/04/30 13:17:09;;;;;;;5.17;2.30;;;;;;;19.26;33.60;101041.27;125462;1102;104711;-77
2022/04/30 13:20:10;;;;;;;3.00;2.20;;;;;;;19.13;32.97;101042.02;125398;1100;104163;-77
2022/04/30 13:23:02;;;;;;;2.73;2.20;;;;;;;18.98;33.06;101048.98;126614;1098;102386;-76
2022/04/30 13:25:48;;;;;;;4.60;2.20;;;;;;;18.88;33.41;101047.09;125777;1102;102300;-76